Time;durP1;ratioP1;P1;durP2;ratioP2;P2;SDS_P1;SDS_P2;PMS_P1;PMS_P2;Temp;Humidity;BMP_temperature;BMP_pressure;BME280_temperature;BME280_humidity;BME280_pressure;Samples;Min_cycle;Max_cycle;Signal;HPM_P1;HPM_P2
2022/12/16 00:01:21;;;;;;;203.18;127.55;;;5.30;99.90;;;;;;6129141;23;20100;-81
2022/12/16 00:03:50;;;;;;;203.98;127.43;;;5.30;99.90;;;;;;6128965;23;20311;-80
2022/12/16 00:06:18;;;;;;;204.80;130.60;;;5.40;99.90;;;;;;6164117;23;20010;-80
2022/12/16 00:08:46;;;;;;;261.55;163.82;;;5.40;99.90;;;;;;6128638;23;20021;-80
2022/12/16 00:11:13;;;;;;;238.98;148.95;;;5.40;99.90;;;;;;6129603;23;20026;-80
2022/12/16 00:13:41;;;;;;;247.30;155.10;;;5.30;99.90;;;;;;6130336;23;20014;-79
2022/12/16 00:16:12;;;;;;;257.08;156.05;;;5.30;99.90;;;;;;6168197;23;20464;-80
2022/12/16 00:18:39;;;;;;;259.92;160.32;;;5.30;99.90;;;;;;6130983;23;20028;-79
2022/12/16 00:21:07;;;;;;;261.23;166.63;;;5.30;99.90;;;;;;6165709;23;20014;-79
2022/12/16 00:23:38;;;;;;;269.23;178.02;;;5.40;99.90;;;;;;6129352;23;20017;-80
2022/12/16 00:26:06;;;;;;;261.58;168.65;;;5.30;99.90;;;;;;6128745;23;20113;-79
2022/12/16 00:28:33;;;;;;;265.55;165.07;;;5.30;99.90;;;;;;6129406;23;20084;-80
2022/12/16 00:31:01;;;;;;;248.07;161.15;;;5.30;99.90;;;;;;6176569;23;20530;-80
2022/12/16 00:33:30;;;;;;;251.90;161.98;;;5.30;99.90;;;;;;6141323;23;20049;-81
2022/12/16 00:35:57;;;;;;;250.85;156.50;;;5.40;99.90;;;;;;6167970;23;20021;-81
2022/12/16 00:38:27;;;;;;;262.63;169.45;;;5.40;99.90;;;;;;6130071;23;20442;-79
2022/12/16 00:40:54;;;;;;;274.75;166.35;;;5.40;99.90;;;;;;6133416;23;20028;-79
2022/12/16 00:43:22;;;;;;;278.83;174.35;;;5.40;99.90;;;;;;6168356;23;20021;-79
2022/12/16 00:45:49;;;;;;;260.23;159.68;;;5.40;99.90;;;;;;6165842;23;20031;-79
2022/12/16 00:48:17;;;;;;;267.80;168.77;;;5.50;99.90;;;;;;6168911;23;20090;-80
2022/12/16 00:50:49;;;;;;;240.48;153.40;;;5.50;99.90;;;;;;6167859;23;20067;-79
2022/12/16 00:53:16;;;;;;;242.38;154.65;;;5.60;99.90;;;;;;6167660;23;20025;-80
2022/12/16 00:55:45;;;;;;;247.82;157.07;;;5.60;99.90;;;;;;6168411;23;20076;-82
2022/12/16 00:58:13;;;;;;;240.32;151.45;;;5.60;99.90;;;;;;6168383;23;20017;-80
2022/12/16 01:00:41;;;;;;;241.02;151.10;;;5.60;99.90;;;;;;6168161;23;20014;-81
2022/12/16 01:03:09;;;;;;;234.02;148.20;;;5.60;99.90;;;;;;6170494;23;20368;-79
2022/12/16 01:05:38;;;;;;;240.52;146.32;;;5.70;99.90;;;;;;6129770;23;20013;-80
2022/12/16 01:08:07;;;;;;;245.73;154.98;;;5.70;99.90;;;;;;6139642;23;20064;-79
2022/12/16 01:10:35;;;;;;;235.38;150.40;;;5.80;99.90;;;;;;6165689;23;20021;-79
2022/12/16 01:13:02;;;;;;;232.77;144.57;;;5.70;99.90;;;;;;6165902;23;20099;-79
2022/12/16 01:15:30;;;;;;;235.52;148.70;;;5.70;99.90;;;;;;6129543;23;20341;-79
2022/12/16 01:17:57;;;;;;;246.30;160.07;;;5.70;99.90;;;;;;6166641;23;20040;-79
2022/12/16 01:20:25;;;;;;;244.77;152.98;;;5.70;99.90;;;;;;6130813;23;20022;-79
2022/12/16 01:22:52;;;;;;;192.90;123.53;;;5.60;99.90;;;;;;6165958;23;20489;-79
2022/12/16 01:25:21;;;;;;;185.30;121.03;;;5.50;99.90;;;;;;6166101;23;20604;-79
2022/12/16 01:27:49;;;;;;;165.52;105.47;;;5.60;99.90;;;;;;6129807;23;20129;-79
2022/12/16 01:30:16;;;;;;;139.15;89.22;;;5.80;99.90;;;;;;6130639;23;20450;-79
2022/12/16 01:32:44;;;;;;;190.55;121.30;;;6.10;99.90;;;;;;6130452;23;20091;-79
2022/12/16 01:35:12;;;;;;;215.98;134.90;;;6.10;99.90;;;;;;6165700;23;20025;-80
2022/12/16 01:37:39;;;;;;;196.02;122.40;;;6.10;99.90;;;;;;6165231;23;20009;-79
2022/12/16 01:40:09;;;;;;;185.32;119.38;;;6.10;99.90;;;;;;6129546;23;20022;-79
2022/12/16 01:42:38;;;;;;;246.68;153.95;;;6.20;99.90;;;;;;6165927;23;20469;-80
2022/12/16 01:45:32;;;;;;;219.50;137.88;;;6.20;99.90;;;;;;6130248;23;20034;-79
2022/12/16 01:48:05;;;;;;;205.07;127.55;;;6.10;99.90;;;;;;6129886;23;20382;-79
2022/12/16 01:50:33;;;;;;;202.57;129.98;;;6.20;99.90;;;;;;6166520;23;20021;-79
2022/12/16 01:53:05;;;;;;;193.07;119.72;;;6.20;99.90;;;;;;6130588;23;20068;-79
2022/12/16 01:55:37;;;;;;;188.13;113.25;;;6.30;99.90;;;;;;6165463;23;20010;-80
2022/12/16 01:58:09;;;;;;;173.75;109.38;;;6.30;99.90;;;;;;6165683;23;20021;-79
2022/12/16 02:00:38;;;;;;;168.48;105.47;;;6.40;99.90;;;;;;6165270;23;20071;-80
2022/12/16 02:03:06;;;;;;;153.88;99.35;;;6.50;99.90;;;;;;6129649;23;20533;-80
2022/12/16 02:05:38;;;;;;;157.40;97.00;;;6.60;99.90;;;;;;6129284;23;20017;-78
2022/12/16 02:08:12;;;;;;;154.40;99.75;;;6.60;99.90;;;;;;6129638;23;20055;-79
2022/12/16 02:11:06;;;;;;;147.88;94.70;;;6.70;99.90;;;;;;6132540;23;20458;-79
2022/12/16 02:13:48;;;;;;;160.75;99.20;;;6.60;99.90;;;;;;6129333;23;20509;-79
2022/12/16 02:16:19;;;;;;;150.98;98.45;;;6.70;99.90;;;;;;6165254;23;20018;-78
2022/12/16 02:18:55;;;;;;;143.57;89.95;;;6.70;99.90;;;;;;6129108;23;20343;-79
2022/12/16 02:21:40;;;;;;;139.80;88.63;;;6.70;99.90;;;;;;6165017;23;20018;-79
2022/12/16 02:24:46;;;;;;;142.00;91.22;;;6.80;99.90;;;;;;6129003;23;20350;-78
2022/12/16 02:27:53;;;;;;;132.32;88.03;;;6.80;99.90;;;;;;6164548;23;20096;-79
2022/12/16 02:30:42;;;;;;;133.82;86.50;;;6.80;99.90;;;;;;6165387;23;20442;-79
2022/12/16 02:33:18;;;;;;;133.18;86.45;;;6.70;99.90;;;;;;6165265;23;20028;-81
2022/12/16 02:35:55;;;;;;;139.20;91.45;;;6.80;99.90;;;;;;6128623;23;20028;-81
2022/12/16 02:38:30;;;;;;;130.77;88.40;;;6.70;99.90;;;;;;6129421;23;20013;-79
2022/12/16 02:41:03;;;;;;;143.02;92.47;;;6.70;99.90;;;;;;6130396;23;20040;-80
2022/12/16 02:43:49;;;;;;;112.47;71.97;;;6.60;99.90;;;;;;6172867;23;20037;-79
2022/12/16 02:46:19;;;;;;;152.68;94.55;;;6.70;99.90;;;;;;6167598;23;20021;-79
2022/12/16 02:48:46;;;;;;;112.60;73.22;;;6.80;99.90;;;;;;6128703;23;20412;-79
2022/12/16 02:51:14;;;;;;;118.47;75.53;;;6.80;99.90;;;;;;6165166;23;20449;-79
2022/12/16 02:53:43;;;;;;;127.13;82.28;;;6.90;99.90;;;;;;6164624;23;20021;-78
2022/12/16 02:56:27;;;;;;;119.93;75.53;;;6.90;99.90;;;;;;6128072;23;20017;-78
2022/12/16 02:59:04;;;;;;;111.63;70.45;;;6.90;99.90;;;;;;6129188;23;20112;-79
2022/12/16 03:01:41;;;;;;;108.60;71.70;;;6.80;99.90;;;;;;6129512;23;20470;-79
2022/12/16 03:04:12;;;;;;;106.15;69.82;;;6.90;99.90;;;;;;6165110;23;20068;-78
2022/12/16 03:06:42;;;;;;;111.75;75.90;;;6.90;99.90;;;;;;6164286;23;20021;-79
2022/12/16 03:09:12;;;;;;;119.47;79.93;;;6.90;99.90;;;;;;6164308;23;20017;-81
2022/12/16 03:11:43;;;;;;;120.57;80.78;;;6.90;99.90;;;;;;6164668;23;20061;-79
2022/12/16 03:14:15;;;;;;;122.82;81.20;;;6.80;99.90;;;;;;6165056;23;20014;-80
2022/12/16 03:16:46;;;;;;;116.30;75.65;;;6.80;99.90;;;;;;6128221;23;20025;-79
2022/12/16 03:19:14;;;;;;;104.93;71.38;;;6.80;99.90;;;;;;6164277;23;20048;-79
2022/12/16 03:21:46;;;;;;;115.80;76.28;;;6.90;99.90;;;;;;6128732;23;20025;-78
2022/12/16 03:24:16;;;;;;;111.18;73.57;;;7.00;99.90;;;;;;6164512;23;20018;-80
2022/12/16 03:26:52;;;;;;;121.53;77.25;;;7.00;99.90;;;;;;6164011;23;20014;-79
2022/12/16 03:29:29;;;;;;;114.78;75.10;;;7.10;99.90;;;;;;6164512;23;20013;-80
2022/12/16 03:32:02;;;;;;;111.05;72.68;;;7.10;99.90;;;;;;6128782;23;20017;-79
2022/12/16 03:34:35;;;;;;;89.95;58.30;;;7.20;99.90;;;;;;6164809;23;20021;-79
2022/12/16 03:37:06;;;;;;;95.45;61.03;;;7.30;99.90;;;;;;6164681;23;20113;-81
2022/12/16 03:39:36;;;;;;;81.47;54.80;;;7.40;99.90;;;;;;6164476;23;20458;-79
2022/12/16 03:42:05;;;;;;;87.63;56.72;;;7.50;99.90;;;;;;6128434;23;20108;-81
2022/12/16 03:44:36;;;;;;;83.68;54.45;;;7.60;99.90;;;;;;6128481;23;20018;-79
2022/12/16 03:47:06;;;;;;;85.05;55.50;;;7.70;99.90;;;;;;6164288;23;20013;-79
2022/12/16 03:49:33;;;;;;;84.72;55.40;;;7.80;99.90;;;;;;6164391;23;20078;-80
2022/12/16 03:52:00;;;;;;;75.63;46.25;;;7.80;99.90;;;;;;6164870;23;20021;-80
2022/12/16 03:54:28;;;;;;;73.63;46.83;;;7.90;99.90;;;;;;6164792;23;20065;-80
2022/12/16 03:56:55;;;;;;;61.85;38.83;;;8.20;99.90;;;;;;6129269;23;20072;-79
2022/12/16 03:59:23;;;;;;;72.53;45.15;;;8.40;99.90;;;;;;6166445;23;20021;-78
2022/12/16 04:01:50;;;;;;;77.32;48.20;;;8.60;99.90;;;;;;6128752;23;20021;-77
2022/12/16 04:04:19;;;;;;;86.28;56.75;;;8.70;99.90;;;;;;6129592;23;20037;-76
2022/12/16 04:07:19;;;;;;;90.68;58.33;;;8.70;99.90;;;;;;6165277;23;20013;-76
2022/12/16 04:09:35;;;;;;;128.80;73.60;;;8.60;99.90;;;;;;6127550;23;20052;-76
2022/12/16 04:25:51;;;;;;;186.60;96.00;;;8.20;99.90;;;;;;6181522;23;20009;-77
2022/12/16 04:28:18;;;;;;;196.98;99.90;;;8.20;99.90;;;;;;6144126;23;20073;-78
2022/12/16 04:30:46;;;;;;;187.85;96.60;;;8.20;99.90;;;;;;6164808;23;20174;-78
